createdAt,value
2023-08-13T00:03:27.041Z,100532.00
2023-08-13T00:07:17.584Z,100531.60
2023-08-13T00:11:07.241Z,100537.80
2023-08-13T00:14:58.988Z,100535.40
2023-08-13T00:18:49.515Z,100536.40
2023-08-13T00:22:39.217Z,100534.00
2023-08-13T00:26:32.778Z,100535.60
2023-08-13T00:30:27.014Z,100535.20
2023-08-13T00:34:16.777Z,100533.80
2023-08-13T00:38:06.541Z,100532.60
2023-08-13T00:41:56.005Z,100531.60
2023-08-13T00:45:51.198Z,100535.00
2023-08-13T00:49:56.755Z,100535.60
2023-08-13T00:53:46.988Z,100538.80
2023-08-13T00:57:35.458Z,100537.40
2023-08-13T01:01:23.858Z,100533.20
2023-08-13T01:05:06.802Z,100531.40
2023-08-13T01:09:15.858Z,100531.40
2023-08-13T01:13:12.382Z,100535.80
2023-08-13T01:17:13.442Z,100530.20
2023-08-13T01:21:02.929Z,100532.80
2023-08-13T01:24:50.959Z,100534.40
2023-08-13T01:28:56.919Z,100536.00
2023-08-13T01:32:47.254Z,100534.20
2023-08-13T01:36:37.733Z,100532.00
2023-08-13T01:40:27.227Z,100527.20
2023-08-13T01:44:17.599Z,100530.60
2023-08-13T01:48:07.113Z,100523.40
2023-08-13T01:51:56.556Z,100529.00
2023-08-13T01:55:47.842Z,100521.80
2023-08-13T01:59:38.312Z,100524.00
2023-08-13T02:03:27.752Z,100527.40
2023-08-13T02:07:17.092Z,100524.60
2023-08-13T02:11:07.900Z,100524.20
2023-08-13T02:14:58.914Z,100520.80
2023-08-13T02:18:48.851Z,100523.00
2023-08-13T02:22:38.311Z,100525.00
2023-08-13T02:26:28.557Z,100526.40
2023-08-13T02:30:19.678Z,100528.00
2023-08-13T02:34:09.600Z,100531.20
2023-08-13T02:37:59.044Z,100533.60
2023-08-13T02:41:49.465Z,100529.80
2023-08-13T02:45:38.887Z,100527.60
2023-08-13T02:49:28.904Z,100532.40
2023-08-13T02:53:18.990Z,100533.20
2023-08-13T02:57:09.628Z,100534.00
2023-08-13T03:00:59.082Z,100534.00
2023-08-13T03:04:48.656Z,100538.00
2023-08-13T03:08:38.545Z,100538.00
2023-08-13T03:12:33.877Z,100541.40
2023-08-13T03:16:25.758Z,100542.00
2023-08-13T03:20:18.988Z,100543.60
2023-08-13T03:24:09.151Z,100546.00
2023-08-13T03:27:59.229Z,100549.60
2023-08-13T03:31:49.469Z,100548.40
2023-08-13T03:35:45.535Z,100551.00
2023-08-13T03:39:35.169Z,100551.20
2023-08-13T03:43:24.695Z,100552.00
2023-08-13T03:47:16.591Z,100554.20
2023-08-13T03:51:06.674Z,100553.40
2023-08-13T03:54:56.676Z,100550.60
2023-08-13T03:58:46.078Z,100552.80
2023-08-13T04:02:36.247Z,100548.60
2023-08-13T04:06:26.055Z,100557.20
2023-08-13T04:10:16.008Z,100557.80
2023-08-13T04:14:05.944Z,100554.20
2023-08-13T04:17:55.243Z,100557.20
2023-08-13T04:21:45.071Z,100556.60
2023-08-13T04:25:34.037Z,100562.60
2023-08-13T04:29:24.314Z,100566.60
2023-08-13T04:33:12.898Z,100570.80
2023-08-13T04:37:02.180Z,100567.60
2023-08-13T04:40:51.962Z,100568.00
2023-08-13T04:44:41.871Z,100566.20
2023-08-13T04:48:31.886Z,100561.40
2023-08-13T04:52:14.637Z,100562.60
2023-08-13T04:56:04.892Z,100570.40
2023-08-13T05:00:01.188Z,100569.80
2023-08-13T05:03:50.626Z,100575.40
2023-08-13T05:07:40.678Z,100576.20
2023-08-13T05:11:29.198Z,100577.20
2023-08-13T05:15:19.283Z,100580.00
2023-08-13T05:19:08.629Z,100582.20
2023-08-13T05:22:58.033Z,100584.40
2023-08-13T05:26:49.359Z,100581.40
2023-08-13T05:30:36.618Z,100589.40
2023-08-13T05:34:26.863Z,100587.60
2023-08-13T05:38:35.592Z,100592.80
2023-08-13T05:42:22.938Z,100593.00
2023-08-13T05:46:10.876Z,100596.60
2023-08-13T05:50:01.459Z,100598.80
2023-08-13T05:53:51.860Z,100593.80
2023-08-13T06:01:48.691Z,100601.20
2023-08-13T06:06:02.662Z,100604.00
2023-08-13T06:14:03.039Z,100608.80
2023-08-13T06:17:51.577Z,100613.00
2023-08-13T06:21:51.199Z,100614.40
2023-08-13T06:25:40.683Z,100621.80
2023-08-13T06:29:31.541Z,100625.40
2023-08-13T06:33:22.040Z,100618.80
2023-08-13T06:37:11.909Z,100625.60
2023-08-13T06:41:02.579Z,100622.00
2023-08-13T06:44:44.914Z,100627.60
2023-08-13T06:48:33.895Z,100623.80
2023-08-13T06:52:23.257Z,100626.60
2023-08-13T06:56:17.357Z,100625.40
2023-08-13T07:00:03.321Z,100615.00
2023-08-13T07:03:58.797Z,100623.80
2023-08-13T07:07:47.044Z,100620.80
2023-08-13T07:16:32.171Z,100614.60
2023-08-13T07:20:23.659Z,100611.40
2023-08-13T07:27:47.333Z,100613.20
2023-08-13T07:31:36.577Z,100610.80
2023-08-13T07:35:38.873Z,100610.80
2023-08-13T07:39:28.985Z,100612.80
2023-08-13T07:52:19.474Z,100607.40
2023-08-13T07:56:09.186Z,100607.60
2023-08-13T08:00:06.219Z,100603.40
2023-08-13T08:03:57.480Z,100607.00
2023-08-13T08:07:45.027Z,100606.00
2023-08-13T08:11:34.261Z,100599.20
2023-08-13T08:15:29.192Z,100598.20
2023-08-13T08:23:55.605Z,100595.00
2023-08-13T08:27:47.163Z,100592.20
2023-08-13T08:35:53.494Z,100579.40
2023-08-13T08:39:39.419Z,100580.20
2023-08-13T08:47:12.342Z,100574.00
2023-08-13T08:51:21.127Z,100570.20
2023-08-13T08:55:43.018Z,100570.60
2023-08-13T08:59:31.435Z,100571.40
2023-08-13T09:03:32.567Z,100570.80
2023-08-13T09:07:06.252Z,100570.60
2023-08-13T09:15:38.398Z,100574.40
2023-08-13T09:19:25.099Z,100571.60
2023-08-13T09:23:14.727Z,100565.40
2023-08-13T09:27:06.583Z,100563.40
2023-08-13T09:31:01.958Z,100557.60
2023-08-13T09:35:00.628Z,100553.60
2023-08-13T09:39:02.763Z,100553.40
2023-08-13T09:47:24.662Z,100548.40
2023-08-13T09:51:19.560Z,100545.40
2023-08-13T09:55:22.040Z,100536.60
2023-08-13T09:59:11.471Z,100532.60
2023-08-13T10:03:01.180Z,100523.20
2023-08-13T10:10:53.658Z,100520.80
2023-08-13T10:14:59.132Z,100520.60
2023-08-13T10:18:30.071Z,100517.80
2023-08-13T10:26:58.898Z,100515.80
2023-08-13T10:31:03.204Z,100518.80
2023-08-13T10:35:02.056Z,100518.00
2023-08-13T10:39:05.759Z,100508.60
2023-08-13T10:43:11.678Z,100507.00
2023-08-13T10:47:03.788Z,100503.40
2023-08-13T10:54:29.905Z,100499.00
2023-08-13T10:58:20.275Z,100494.20
2023-08-13T11:02:14.529Z,100484.20
2023-08-13T11:06:05.767Z,100492.20
2023-08-13T11:13:55.101Z,100490.80
2023-08-13T11:17:59.557Z,100491.40
2023-08-13T11:21:52.243Z,100483.60
2023-08-13T11:25:35.341Z,100482.60
2023-08-13T11:29:26.879Z,100471.00
2023-08-13T11:33:33.374Z,100475.40
2023-08-13T11:41:22.138Z,100466.20
2023-08-13T11:45:14.390Z,100466.20
2023-08-13T11:49:06.689Z,100456.00
2023-08-13T11:52:40.671Z,100457.60
2023-08-13T11:56:36.239Z,100455.40
2023-08-13T12:00:11.461Z,100459.00
2023-08-13T12:04:14.629Z,100453.60
2023-08-13T12:08:01.840Z,100453.20
2023-08-13T12:11:57.648Z,100452.40
2023-08-13T12:15:48.163Z,100451.40
2023-08-13T12:19:30.684Z,100447.80
2023-08-13T12:23:19.299Z,100439.20
2023-08-13T12:27:12.056Z,100440.80
2023-08-13T12:31:12.601Z,100434.40
2023-08-13T12:35:02.475Z,100428.80
2023-08-13T12:38:47.681Z,100425.40
2023-08-13T12:50:24.671Z,100422.00
2023-08-13T12:53:54.168Z,100415.60
2023-08-13T13:01:49.503Z,100419.00
2023-08-13T13:05:36.860Z,100421.40
2023-08-13T13:09:24.427Z,100419.00
2023-08-13T13:21:27.538Z,100400.60
2023-08-13T13:25:15.357Z,100397.00
2023-08-13T13:29:06.199Z,100396.40
2023-08-13T13:32:50.385Z,100395.00
2023-08-13T13:40:51.861Z,100392.60
2023-08-13T13:48:22.434Z,100395.40
2023-08-13T14:00:27.026Z,100380.20
2023-08-13T14:04:07.675Z,100381.80
2023-08-13T14:08:03.323Z,100380.00
2023-08-13T14:11:52.972Z,100381.00
2023-08-13T14:15:43.214Z,100375.60
2023-08-13T14:19:31.145Z,100374.60
2023-08-13T14:23:18.431Z,100382.00
2023-08-13T14:27:09.420Z,100379.40
2023-08-13T14:31:11.396Z,100375.40
2023-08-13T14:34:53.786Z,100380.40
2023-08-13T14:38:43.637Z,100376.60
2023-08-13T14:42:30.988Z,100378.80
2023-08-13T14:46:24.077Z,100380.80
2023-08-13T14:53:27.545Z,100383.60
2023-08-13T14:57:20.958Z,100380.00
2023-08-13T15:01:08.723Z,100377.40
2023-08-13T15:04:40.723Z,100377.00
2023-08-13T15:08:15.859Z,100372.00
2023-08-13T15:11:55.226Z,100380.40
2023-08-13T15:15:38.238Z,100374.40
2023-08-13T15:23:56.931Z,100379.20
2023-08-13T15:27:32.770Z,100381.20
2023-08-13T15:31:07.834Z,100381.40
2023-08-13T15:35:17.587Z,100380.80
2023-08-13T15:39:05.042Z,100379.20
2023-08-13T15:42:54.605Z,100374.40
2023-08-13T15:51:12.957Z,100377.40
2023-08-13T15:55:00.472Z,100377.20
2023-08-13T15:58:47.636Z,100380.60
2023-08-13T16:02:46.827Z,100382.20
2023-08-13T16:06:57.649Z,100389.00
2023-08-13T16:10:47.527Z,100390.20
2023-08-13T16:14:41.269Z,100388.20
2023-08-13T16:18:28.845Z,100390.20
2023-08-13T16:22:21.498Z,100391.60
2023-08-13T16:30:24.158Z,100394.20
2023-08-13T16:34:09.780Z,100395.60
2023-08-13T16:50:12.499Z,100409.20
2023-08-13T16:54:04.288Z,100408.20
2023-08-13T16:57:55.703Z,100414.20
2023-08-13T17:05:53.103Z,100418.40
2023-08-13T17:09:42.701Z,100418.80
2023-08-13T17:13:33.133Z,100420.60
2023-08-13T17:17:26.495Z,100420.40
2023-08-13T17:21:18.600Z,100427.20
2023-08-13T17:25:02.912Z,100431.40
2023-08-13T17:28:45.823Z,100436.40
2023-08-13T17:32:37.283Z,100435.20
2023-08-13T17:36:33.958Z,100435.60
2023-08-13T17:40:24.926Z,100436.00
2023-08-13T17:44:13.326Z,100441.80
2023-08-13T17:48:02.788Z,100443.60
2023-08-13T17:51:52.052Z,100445.20
2023-08-13T17:55:34.517Z,100450.40
2023-08-13T17:59:24.174Z,100455.40
2023-08-13T18:03:11.432Z,100455.80
2023-08-13T18:07:00.870Z,100459.40
2023-08-13T18:10:52.085Z,100461.00
2023-08-13T18:14:43.580Z,100467.20
2023-08-13T18:18:33.019Z,100468.40
2023-08-13T18:22:21.670Z,100471.80
2023-08-13T18:26:03.957Z,100470.40
2023-08-13T18:29:53.380Z,100472.40
2023-08-13T18:33:43.092Z,100477.80
2023-08-13T18:37:25.462Z,100481.40
2023-08-13T18:41:15.356Z,100488.40
2023-08-13T18:45:09.871Z,100492.20
2023-08-13T18:48:59.444Z,100495.60
2023-08-13T18:52:44.732Z,100493.00
2023-08-13T18:56:35.841Z,100495.40
2023-08-13T19:00:23.949Z,100499.80
2023-08-13T19:07:12.110Z,100505.40
2023-08-13T19:10:52.894Z,100510.00
2023-08-13T19:14:38.834Z,100511.00
2023-08-13T19:17:29.930Z,100517.80
2023-08-13T19:21:20.413Z,100520.60
2023-08-13T19:25:11.025Z,100522.80
2023-08-13T19:29:02.889Z,100524.80
2023-08-13T19:32:55.802Z,100528.80
2023-08-13T19:36:40.952Z,100530.00
2023-08-13T19:40:31.166Z,100528.40
2023-08-13T19:44:32.276Z,100531.40
2023-08-13T19:48:17.047Z,100527.60
2023-08-13T19:52:09.358Z,100535.40
2023-08-13T19:55:58.727Z,100541.00
2023-08-13T19:59:41.153Z,100543.40
2023-08-13T20:03:31.610Z,100537.20
2023-08-13T20:07:06.544Z,100539.00
2023-08-13T20:10:56.973Z,100543.20
2023-08-13T20:14:48.399Z,100548.40
2023-08-13T20:18:40.074Z,100545.40
2023-08-13T20:22:29.562Z,100547.80
2023-08-13T20:26:19.013Z,100543.40
2023-08-13T20:30:08.443Z,100542.20
2023-08-13T20:33:50.376Z,100543.00
2023-08-13T20:37:40.241Z,100548.80
2023-08-13T20:41:29.728Z,100550.00
2023-08-13T20:45:19.151Z,100553.80
2023-08-13T20:49:09.138Z,100557.40
2023-08-13T20:53:04.272Z,100558.60
2023-08-13T20:56:53.621Z,100560.60
2023-08-13T21:00:44.101Z,100560.20
2023-08-13T21:03:39.060Z,100560.60
2023-08-13T21:07:27.778Z,100554.80
2023-08-13T21:11:18.936Z,100559.20
2023-08-13T21:15:08.845Z,100558.00
2023-08-13T21:18:59.695Z,100557.00
2023-08-13T21:22:49.025Z,100563.00
2023-08-13T21:26:38.661Z,100561.80
2023-08-13T21:30:28.033Z,100558.60
2023-08-13T21:34:17.972Z,100567.60
2023-08-13T21:38:08.528Z,100565.20
2023-08-13T21:41:57.979Z,100567.40
2023-08-13T21:45:45.869Z,100564.40
2023-08-13T21:49:35.410Z,100568.80
2023-08-13T21:53:25.779Z,100566.40
2023-08-13T21:57:15.255Z,100564.80
2023-08-13T22:01:05.222Z,100566.00
2023-08-13T22:04:51.673Z,100569.40
2023-08-13T22:08:38.208Z,100572.00
2023-08-13T22:12:27.623Z,100575.20
2023-08-13T22:16:19.690Z,100571.80
2023-08-13T22:20:14.237Z,100568.00
2023-08-13T22:23:57.609Z,100562.40
2023-08-13T22:27:49.466Z,100559.60
2023-08-13T22:31:39.340Z,100562.40
2023-08-13T22:35:29.758Z,100571.20
2023-08-13T22:39:16.335Z,100604.80
2023-08-13T22:47:10.595Z,100603.80
2023-08-13T22:50:57.871Z,100602.80
2023-08-13T22:54:48.357Z,100587.40
2023-08-13T22:58:37.848Z,100595.40
2023-08-13T23:02:23.557Z,100584.80
2023-08-13T23:06:02.364Z,100586.60
2023-08-13T23:09:56.209Z,100583.20
2023-08-13T23:13:47.238Z,100584.60
2023-08-13T23:17:40.182Z,100585.20
2023-08-13T23:21:50.069Z,100584.40
2023-08-13T23:25:42.401Z,100582.00
2023-08-13T23:29:32.790Z,100590.40
2023-08-13T23:33:20.860Z,100588.80
2023-08-13T23:37:11.221Z,100589.20
2023-08-13T23:41:01.205Z,100589.80
2023-08-13T23:44:53.411Z,100589.80
2023-08-13T23:48:43.856Z,100588.60
2023-08-13T23:52:34.791Z,100592.20
2023-08-13T23:56:26.066Z,100586.80
